sensor_id;sensor_type;location;lat;lon;timestamp;P1;durP1;ratioP1;P2;durP2;ratioP2
9918;SDS011;4998;51.024;13.828;2023-06-10T00:00:05;5.20;;;4.80;;
9918;SDS011;4998;51.024;13.828;2023-06-10T00:02:33;5.00;;;4.50;;
9918;SDS011;4998;51.024;13.828;2023-06-10T00:05:00;5.20;;;4.70;;
9918;SDS011;4998;51.024;13.828;2023-06-10T00:07:27;5.60;;;5.03;;
9918;SDS011;4998;51.024;13.828;2023-06-10T00:09:54;5.10;;;4.70;;
9918;SDS011;4998;51.024;13.828;2023-06-10T00:12:22;5.00;;;4.50;;
9918;SDS011;4998;51.024;13.828;2023-06-10T00:14:49;5.13;;;4.63;;
9918;SDS011;4998;51.024;13.828;2023-06-10T00:17:20;5.13;;;4.73;;
9918;SDS011;4998;51.024;13.828;2023-06-10T00:19:48;5.13;;;4.60;;
9918;SDS011;4998;51.024;13.828;2023-06-10T00:22:15;5.40;;;4.90;;
9918;SDS011;4998;51.024;13.828;2023-06-10T00:24:42;5.10;;;4.70;;
9918;SDS011;4998;51.024;13.828;2023-06-10T00:27:09;5.80;;;5.30;;
9918;SDS011;4998;51.024;13.828;2023-06-10T00:29:36;5.37;;;4.87;;
9918;SDS011;4998;51.024;13.828;2023-06-10T00:32:04;5.03;;;4.53;;
9918;SDS011;4998;51.024;13.828;2023-06-10T00:34:33;5.50;;;4.80;;
9918;SDS011;4998;51.024;13.828;2023-06-10T00:37:00;5.63;;;5.13;;
9918;SDS011;4998;51.024;13.828;2023-06-10T00:39:28;4.47;;;4.10;;
9918;SDS011;4998;51.024;13.828;2023-06-10T00:41:55;6.70;;;5.67;;
9918;SDS011;4998;51.024;13.828;2023-06-10T00:44:22;5.40;;;4.77;;
9918;SDS011;4998;51.024;13.828;2023-06-10T00:46:49;5.60;;;5.10;;
9918;SDS011;4998;51.024;13.828;2023-06-10T00:49:18;5.60;;;5.10;;
9918;SDS011;4998;51.024;13.828;2023-06-10T00:51:46;5.80;;;5.30;;
9918;SDS011;4998;51.024;13.828;2023-06-10T00:54:14;5.60;;;5.10;;
9918;SDS011;4998;51.024;13.828;2023-06-10T00:56:41;7.30;;;5.73;;
9918;SDS011;4998;51.024;13.828;2023-06-10T00:59:08;6.90;;;6.23;;
9918;SDS011;4998;51.024;13.828;2023-06-10T01:01:35;7.13;;;6.13;;
9918;SDS011;4998;51.024;13.828;2023-06-10T01:04:04;6.23;;;5.73;;
9918;SDS011;4998;51.024;13.828;2023-06-10T01:06:33;7.20;;;6.50;;
9918;SDS011;4998;51.024;13.828;2023-06-10T01:09:16;6.50;;;5.90;;
9918;SDS011;4998;51.024;13.828;2023-06-10T01:11:49;6.23;;;5.63;;
9918;SDS011;4998;51.024;13.828;2023-06-10T01:14:24;6.40;;;5.80;;
9918;SDS011;4998;51.024;13.828;2023-06-10T01:16:51;6.57;;;5.97;;
9918;SDS011;4998;51.024;13.828;2023-06-10T01:19:19;9.43;;;5.83;;
9918;SDS011;4998;51.024;13.828;2023-06-10T01:21:50;8.80;;;6.10;;
9918;SDS011;4998;51.024;13.828;2023-06-10T01:24:20;7.50;;;6.47;;
9918;SDS011;4998;51.024;13.828;2023-06-10T01:26:48;6.57;;;5.97;;
9918;SDS011;4998;51.024;13.828;2023-06-10T01:29:17;6.60;;;6.00;;
9918;SDS011;4998;51.024;13.828;2023-06-10T01:31:48;6.53;;;5.80;;
9918;SDS011;4998;51.024;13.828;2023-06-10T01:34:21;11.53;;;6.40;;
9918;SDS011;4998;51.024;13.828;2023-06-10T01:36:52;6.80;;;6.20;;
9918;SDS011;4998;51.024;13.828;2023-06-10T01:39:22;6.50;;;5.90;;
9918;SDS011;4998;51.024;13.828;2023-06-10T01:41:51;6.30;;;5.80;;
9918;SDS011;4998;51.024;13.828;2023-06-10T01:44:19;6.43;;;5.83;;
9918;SDS011;4998;51.024;13.828;2023-06-10T01:46:47;7.17;;;6.47;;
9918;SDS011;4998;51.024;13.828;2023-06-10T01:49:14;7.10;;;6.50;;
9918;SDS011;4998;51.024;13.828;2023-06-10T01:51:41;6.77;;;6.17;;
9918;SDS011;4998;51.024;13.828;2023-06-10T01:54:09;6.33;;;5.80;;
9918;SDS011;4998;51.024;13.828;2023-06-10T01:56:36;6.20;;;5.70;;
9918;SDS011;4998;51.024;13.828;2023-06-10T01:59:03;6.83;;;6.23;;
9918;SDS011;4998;51.024;13.828;2023-06-10T02:01:31;7.20;;;6.37;;
9918;SDS011;4998;51.024;13.828;2023-06-10T02:03:58;7.60;;;5.70;;
9918;SDS011;4998;51.024;13.828;2023-06-10T02:06:25;7.17;;;6.47;;
9918;SDS011;4998;51.024;13.828;2023-06-10T02:08:52;6.50;;;5.83;;
9918;SDS011;4998;51.024;13.828;2023-06-10T02:11:20;7.00;;;6.40;;
9918;SDS011;4998;51.024;13.828;2023-06-10T02:13:47;6.77;;;6.07;;
9918;SDS011;4998;51.024;13.828;2023-06-10T02:16:14;6.67;;;6.07;;
9918;SDS011;4998;51.024;13.828;2023-06-10T02:18:42;6.70;;;6.00;;
9918;SDS011;4998;51.024;13.828;2023-06-10T02:21:09;6.63;;;6.03;;
9918;SDS011;4998;51.024;13.828;2023-06-10T02:23:36;6.60;;;5.67;;
9918;SDS011;4998;51.024;13.828;2023-06-10T02:26:03;6.80;;;6.20;;
9918;SDS011;4998;51.024;13.828;2023-06-10T02:28:32;7.00;;;6.40;;
9918;SDS011;4998;51.024;13.828;2023-06-10T02:30:59;6.57;;;5.97;;
9918;SDS011;4998;51.024;13.828;2023-06-10T02:33:26;6.57;;;5.80;;
9918;SDS011;4998;51.024;13.828;2023-06-10T02:35:53;6.80;;;6.20;;
9918;SDS011;4998;51.024;13.828;2023-06-10T02:38:21;6.70;;;6.10;;
9918;SDS011;4998;51.024;13.828;2023-06-10T02:40:49;6.90;;;6.20;;
9918;SDS011;4998;51.024;13.828;2023-06-10T02:43:16;6.83;;;6.23;;
9918;SDS011;4998;51.024;13.828;2023-06-10T02:45:44;6.53;;;5.93;;
9918;SDS011;4998;51.024;13.828;2023-06-10T02:48:11;6.67;;;6.07;;
9918;SDS011;4998;51.024;13.828;2023-06-10T02:50:38;9.67;;;6.70;;
9918;SDS011;4998;51.024;13.828;2023-06-10T02:53:05;11.30;;;6.30;;
9918;SDS011;4998;51.024;13.828;2023-06-10T02:55:33;9.47;;;7.27;;
9918;SDS011;4998;51.024;13.828;2023-06-10T02:58:00;9.87;;;6.20;;
9918;SDS011;4998;51.024;13.828;2023-06-10T03:00:27;7.10;;;6.50;;
9918;SDS011;4998;51.024;13.828;2023-06-10T03:02:56;6.80;;;6.20;;
9918;SDS011;4998;51.024;13.828;2023-06-10T03:05:25;6.70;;;5.90;;
9918;SDS011;4998;51.024;13.828;2023-06-10T03:07:52;5.90;;;5.37;;
9918;SDS011;4998;51.024;13.828;2023-06-10T03:10:19;7.30;;;6.60;;
9918;SDS011;4998;51.024;13.828;2023-06-10T03:12:46;6.93;;;6.30;;
9918;SDS011;4998;51.024;13.828;2023-06-10T03:15:13;7.50;;;6.70;;
9918;SDS011;4998;51.024;13.828;2023-06-10T03:17:41;6.93;;;6.33;;
9918;SDS011;4998;51.024;13.828;2023-06-10T03:20:10;7.07;;;6.43;;
9918;SDS011;4998;51.024;13.828;2023-06-10T03:22:37;7.03;;;6.33;;
9918;SDS011;4998;51.024;13.828;2023-06-10T03:25:05;6.47;;;5.90;;
9918;SDS011;4998;51.024;13.828;2023-06-10T03:27:39;7.77;;;6.97;;
9918;SDS011;4998;51.024;13.828;2023-06-10T03:30:06;6.50;;;5.90;;
9918;SDS011;4998;51.024;13.828;2023-06-10T03:32:34;6.87;;;6.27;;
9918;SDS011;4998;51.024;13.828;2023-06-10T03:35:02;8.73;;;6.30;;
9918;SDS011;4998;51.024;13.828;2023-06-10T03:37:30;6.37;;;5.80;;
9918;SDS011;4998;51.024;13.828;2023-06-10T03:39:57;6.50;;;5.90;;
9918;SDS011;4998;51.024;13.828;2023-06-10T03:42:24;6.30;;;5.70;;
9918;SDS011;4998;51.024;13.828;2023-06-10T03:44:51;6.40;;;5.80;;
9918;SDS011;4998;51.024;13.828;2023-06-10T03:47:18;6.73;;;5.90;;
9918;SDS011;4998;51.024;13.828;2023-06-10T03:49:46;5.90;;;5.40;;
9918;SDS011;4998;51.024;13.828;2023-06-10T03:52:13;5.50;;;5.03;;
9918;SDS011;4998;51.024;13.828;2023-06-10T03:54:41;6.00;;;5.50;;
9918;SDS011;4998;51.024;13.828;2023-06-10T03:57:08;6.70;;;6.10;;
9918;SDS011;4998;51.024;13.828;2023-06-10T03:59:35;6.20;;;5.60;;
9918;SDS011;4998;51.024;13.828;2023-06-10T04:02:03;6.53;;;5.93;;
9918;SDS011;4998;51.024;13.828;2023-06-10T04:04:31;7.47;;;6.00;;
9918;SDS011;4998;51.024;13.828;2023-06-10T04:06:58;6.27;;;5.77;;
9918;SDS011;4998;51.024;13.828;2023-06-10T04:09:25;6.40;;;5.80;;
9918;SDS011;4998;51.024;13.828;2023-06-10T04:11:54;5.97;;;5.47;;
9918;SDS011;4998;51.024;13.828;2023-06-10T04:14:21;7.00;;;6.30;;
9918;SDS011;4998;51.024;13.828;2023-06-10T04:16:49;7.07;;;6.17;;
9918;SDS011;4998;51.024;13.828;2023-06-10T04:19:16;9.47;;;5.90;;
9918;SDS011;4998;51.024;13.828;2023-06-10T04:21:43;6.10;;;5.50;;
9918;SDS011;4998;51.024;13.828;2023-06-10T04:24:10;7.10;;;6.40;;
9918;SDS011;4998;51.024;13.828;2023-06-10T04:26:37;6.80;;;6.10;;
9918;SDS011;4998;51.024;13.828;2023-06-10T04:29:06;7.30;;;6.60;;
9918;SDS011;4998;51.024;13.828;2023-06-10T04:31:33;5.40;;;4.90;;
9918;SDS011;4998;51.024;13.828;2023-06-10T04:34:00;5.70;;;5.20;;
9918;SDS011;4998;51.024;13.828;2023-06-10T04:36:27;8.57;;;5.50;;
9918;SDS011;4998;51.024;13.828;2023-06-10T04:38:54;5.93;;;5.43;;
9918;SDS011;4998;51.024;13.828;2023-06-10T04:41:21;5.40;;;5.00;;
9918;SDS011;4998;51.024;13.828;2023-06-10T04:43:48;6.00;;;5.50;;
9918;SDS011;4998;51.024;13.828;2023-06-10T04:46:17;5.73;;;5.23;;
9918;SDS011;4998;51.024;13.828;2023-06-10T04:48:44;5.93;;;5.43;;
9918;SDS011;4998;51.024;13.828;2023-06-10T04:51:12;6.13;;;5.63;;
9918;SDS011;4998;51.024;13.828;2023-06-10T04:53:39;6.67;;;6.00;;
9918;SDS011;4998;51.024;13.828;2023-06-10T04:56:07;8.47;;;5.90;;
9918;SDS011;4998;51.024;13.828;2023-06-10T04:58:34;6.40;;;5.80;;
9918;SDS011;4998;51.024;13.828;2023-06-10T05:01:01;6.90;;;6.03;;
9918;SDS011;4998;51.024;13.828;2023-06-10T05:03:29;6.90;;;5.70;;
9918;SDS011;4998;51.024;13.828;2023-06-10T05:05:56;5.90;;;5.40;;
9918;SDS011;4998;51.024;13.828;2023-06-10T05:08:23;7.33;;;5.60;;
9918;SDS011;4998;51.024;13.828;2023-06-10T05:10:50;6.00;;;5.40;;
9918;SDS011;4998;51.024;13.828;2023-06-10T05:13:17;6.00;;;5.30;;
9918;SDS011;4998;51.024;13.828;2023-06-10T05:15:44;5.43;;;5.03;;
9918;SDS011;4998;51.024;13.828;2023-06-10T05:18:11;5.47;;;5.07;;
9918;SDS011;4998;51.024;13.828;2023-06-10T05:20:40;5.90;;;5.40;;
9918;SDS011;4998;51.024;13.828;2023-06-10T05:23:07;6.40;;;5.80;;
9918;SDS011;4998;51.024;13.828;2023-06-10T05:25:34;5.90;;;5.40;;
9918;SDS011;4998;51.024;13.828;2023-06-10T05:28:01;5.50;;;5.10;;
9918;SDS011;4998;51.024;13.828;2023-06-10T05:30:28;6.10;;;5.50;;
9918;SDS011;4998;51.024;13.828;2023-06-10T05:32:55;6.50;;;5.90;;
9918;SDS011;4998;51.024;13.828;2023-06-10T05:35:22;5.90;;;5.40;;
9918;SDS011;4998;51.024;13.828;2023-06-10T05:37:51;6.23;;;5.63;;
9918;SDS011;4998;51.024;13.828;2023-06-10T05:40:18;6.37;;;5.77;;
9918;SDS011;4998;51.024;13.828;2023-06-10T05:42:45;6.83;;;6.23;;
9918;SDS011;4998;51.024;13.828;2023-06-10T05:45:12;6.10;;;5.60;;
9918;SDS011;4998;51.024;13.828;2023-06-10T05:47:39;8.10;;;5.70;;
9918;SDS011;4998;51.024;13.828;2023-06-10T05:50:06;6.47;;;5.87;;
9918;SDS011;4998;51.024;13.828;2023-06-10T05:52:34;7.40;;;5.77;;
9918;SDS011;4998;51.024;13.828;2023-06-10T05:55:03;6.00;;;5.50;;
9918;SDS011;4998;51.024;13.828;2023-06-10T05:57:30;7.20;;;5.90;;
9918;SDS011;4998;51.024;13.828;2023-06-10T05:59:57;7.17;;;6.30;;
9918;SDS011;4998;51.024;13.828;2023-06-10T06:02:24;6.80;;;5.80;;
9918;SDS011;4998;51.024;13.828;2023-06-10T06:04:51;7.10;;;6.50;;
9918;SDS011;4998;51.024;13.828;2023-06-10T06:07:19;6.93;;;6.27;;
9918;SDS011;4998;51.024;13.828;2023-06-10T06:09:46;7.87;;;7.17;;
9918;SDS011;4998;51.024;13.828;2023-06-10T06:12:15;9.10;;;6.20;;
9918;SDS011;4998;51.024;13.828;2023-06-10T06:14:42;6.00;;;5.50;;
9918;SDS011;4998;51.024;13.828;2023-06-10T06:17:10;6.40;;;5.90;;
9918;SDS011;4998;51.024;13.828;2023-06-10T06:19:37;8.43;;;5.70;;
9918;SDS011;4998;51.024;13.828;2023-06-10T06:22:04;6.60;;;6.00;;
9918;SDS011;4998;51.024;13.828;2023-06-10T06:24:31;6.03;;;5.43;;
9918;SDS011;4998;51.024;13.828;2023-06-10T06:26:58;6.53;;;5.93;;
9918;SDS011;4998;51.024;13.828;2023-06-10T06:29:27;6.33;;;5.70;;
9918;SDS011;4998;51.024;13.828;2023-06-10T06:31:55;6.40;;;5.80;;
9918;SDS011;4998;51.024;13.828;2023-06-10T06:34:22;6.50;;;5.90;;
9918;SDS011;4998;51.024;13.828;2023-06-10T06:36:49;6.43;;;5.83;;
9918;SDS011;4998;51.024;13.828;2023-06-10T06:39:16;7.10;;;6.40;;
9918;SDS011;4998;51.024;13.828;2023-06-10T06:41:43;6.67;;;6.10;;
9918;SDS011;4998;51.024;13.828;2023-06-10T06:44:10;6.27;;;5.70;;
9918;SDS011;4998;51.024;13.828;2023-06-10T06:46:38;6.30;;;5.77;;
9918;SDS011;4998;51.024;13.828;2023-06-10T06:49:05;7.10;;;6.00;;
9918;SDS011;4998;51.024;13.828;2023-06-10T06:51:32;6.03;;;5.47;;
9918;SDS011;4998;51.024;13.828;2023-06-10T06:54:00;5.77;;;5.27;;
9918;SDS011;4998;51.024;13.828;2023-06-10T06:56:27;6.00;;;5.47;;
9918;SDS011;4998;51.024;13.828;2023-06-10T06:58:54;5.47;;;4.97;;
9918;SDS011;4998;51.024;13.828;2023-06-10T07:01:21;5.67;;;5.17;;
9918;SDS011;4998;51.024;13.828;2023-06-10T07:03:49;7.07;;;6.23;;
9918;SDS011;4998;51.024;13.828;2023-06-10T07:06:16;5.40;;;5.00;;
9918;SDS011;4998;51.024;13.828;2023-06-10T07:08:43;5.43;;;5.03;;
9918;SDS011;4998;51.024;13.828;2023-06-10T07:11:10;5.30;;;4.90;;
9918;SDS011;4998;51.024;13.828;2023-06-10T07:13:37;6.20;;;5.60;;
9918;SDS011;4998;51.024;13.828;2023-06-10T07:16:04;5.43;;;5.03;;
9918;SDS011;4998;51.024;13.828;2023-06-10T07:18:31;4.53;;;4.13;;
9918;SDS011;4998;51.024;13.828;2023-06-10T07:21:00;4.90;;;4.50;;
9918;SDS011;4998;51.024;13.828;2023-06-10T07:23:27;5.47;;;5.00;;
9918;SDS011;4998;51.024;13.828;2023-06-10T07:25:54;5.30;;;4.90;;
9918;SDS011;4998;51.024;13.828;2023-06-10T07:28:21;6.33;;;5.13;;
9918;SDS011;4998;51.024;13.828;2023-06-10T07:30:48;6.70;;;5.70;;
9918;SDS011;4998;51.024;13.828;2023-06-10T07:33:15;5.70;;;5.20;;
9918;SDS011;4998;51.024;13.828;2023-06-10T07:35:42;5.93;;;5.13;;
9918;SDS011;4998;51.024;13.828;2023-06-10T07:38:10;4.87;;;4.47;;
9918;SDS011;4998;51.024;13.828;2023-06-10T07:40:37;5.47;;;4.97;;
9918;SDS011;4998;51.024;13.828;2023-06-10T07:43:04;5.27;;;4.83;;
9918;SDS011;4998;51.024;13.828;2023-06-10T07:45:31;5.40;;;4.93;;
9918;SDS011;4998;51.024;13.828;2023-06-10T07:47:58;5.00;;;4.60;;
9918;SDS011;4998;51.024;13.828;2023-06-10T07:50:25;5.00;;;4.60;;
9918;SDS011;4998;51.024;13.828;2023-06-10T07:52:52;4.67;;;4.23;;
9918;SDS011;4998;51.024;13.828;2023-06-10T07:55:20;4.90;;;4.50;;
9918;SDS011;4998;51.024;13.828;2023-06-10T07:57:47;4.70;;;4.30;;
9918;SDS011;4998;51.024;13.828;2023-06-10T08:00:15;4.60;;;4.30;;
9918;SDS011;4998;51.024;13.828;2023-06-10T08:02:42;4.60;;;4.30;;
9918;SDS011;4998;51.024;13.828;2023-06-10T08:05:09;5.60;;;4.30;;
9918;SDS011;4998;51.024;13.828;2023-06-10T08:07:36;6.80;;;6.10;;
9918;SDS011;4998;51.024;13.828;2023-06-10T08:10:04;9.03;;;8.13;;
9918;SDS011;4998;51.024;13.828;2023-06-10T08:12:33;7.10;;;6.40;;
9918;SDS011;4998;51.024;13.828;2023-06-10T08:15:00;5.30;;;4.90;;
9918;SDS011;4998;51.024;13.828;2023-06-10T08:17:29;5.50;;;5.00;;
9918;SDS011;4998;51.024;13.828;2023-06-10T08:19:56;5.67;;;5.17;;
9918;SDS011;4998;51.024;13.828;2023-06-10T08:22:23;6.10;;;5.00;;
9918;SDS011;4998;51.024;13.828;2023-06-10T08:24:50;5.60;;;4.73;;
9918;SDS011;4998;51.024;13.828;2023-06-10T08:27:17;5.37;;;4.83;;
9918;SDS011;4998;51.024;13.828;2023-06-10T08:29:45;5.60;;;4.90;;
9918;SDS011;4998;51.024;13.828;2023-06-10T08:32:12;4.80;;;4.40;;
9918;SDS011;4998;51.024;13.828;2023-06-10T08:34:39;5.37;;;4.97;;
9918;SDS011;4998;51.024;13.828;2023-06-10T08:37:06;6.67;;;5.00;;
9918;SDS011;4998;51.024;13.828;2023-06-10T08:39:33;6.50;;;5.00;;
9918;SDS011;4998;51.024;13.828;2023-06-10T08:42:04;4.80;;;4.40;;
9918;SDS011;4998;51.024;13.828;2023-06-10T08:44:35;5.37;;;4.93;;
9918;SDS011;4998;51.024;13.828;2023-06-10T08:47:07;5.37;;;4.87;;
9918;SDS011;4998;51.024;13.828;2023-06-10T08:49:43;4.70;;;4.30;;
9918;SDS011;4998;51.024;13.828;2023-06-10T08:52:14;5.10;;;4.60;;
9918;SDS011;4998;51.024;13.828;2023-06-10T08:54:42;4.70;;;4.30;;
9918;SDS011;4998;51.024;13.828;2023-06-10T08:57:18;4.70;;;4.40;;
9918;SDS011;4998;51.024;13.828;2023-06-10T08:59:47;4.53;;;4.20;;
9918;SDS011;4998;51.024;13.828;2023-06-10T09:02:15;4.93;;;4.53;;
9918;SDS011;4998;51.024;13.828;2023-06-10T09:04:45;5.10;;;4.60;;
9918;SDS011;4998;51.024;13.828;2023-06-10T09:07:13;4.70;;;4.30;;
9918;SDS011;4998;51.024;13.828;2023-06-10T09:09:41;6.07;;;4.97;;
9918;SDS011;4998;51.024;13.828;2023-06-10T09:12:09;6.93;;;6.33;;
9918;SDS011;4998;51.024;13.828;2023-06-10T09:14:36;10.13;;;5.87;;
9918;SDS011;4998;51.024;13.828;2023-06-10T09:17:03;7.30;;;4.87;;
9918;SDS011;4998;51.024;13.828;2023-06-10T09:19:33;4.73;;;4.13;;
9918;SDS011;4998;51.024;13.828;2023-06-10T09:22:02;5.00;;;4.60;;
9918;SDS011;4998;51.024;13.828;2023-06-10T09:24:29;4.87;;;4.47;;
9918;SDS011;4998;51.024;13.828;2023-06-10T09:27:01;4.80;;;4.40;;
9918;SDS011;4998;51.024;13.828;2023-06-10T09:29:30;6.03;;;4.23;;
9918;SDS011;4998;51.024;13.828;2023-06-10T09:31:57;5.70;;;5.20;;
9918;SDS011;4998;51.024;13.828;2023-06-10T09:34:24;5.07;;;4.57;;
9918;SDS011;4998;51.024;13.828;2023-06-10T09:36:53;6.00;;;5.50;;
9918;SDS011;4998;51.024;13.828;2023-06-10T09:39:20;6.00;;;5.50;;
9918;SDS011;4998;51.024;13.828;2023-06-10T09:41:47;5.43;;;5.00;;
9918;SDS011;4998;51.024;13.828;2023-06-10T09:44:16;5.00;;;4.60;;
9918;SDS011;4998;51.024;13.828;2023-06-10T09:46:44;4.70;;;4.30;;
9918;SDS011;4998;51.024;13.828;2023-06-10T09:49:12;4.60;;;4.20;;
9918;SDS011;4998;51.024;13.828;2023-06-10T09:51:48;4.47;;;4.07;;
9918;SDS011;4998;51.024;13.828;2023-06-10T09:54:18;3.90;;;3.60;;
9918;SDS011;4998;51.024;13.828;2023-06-10T09:56:46;4.17;;;3.87;;
9918;SDS011;4998;51.024;13.828;2023-06-10T09:59:14;4.37;;;3.97;;
9918;SDS011;4998;51.024;13.828;2023-06-10T10:01:41;3.70;;;3.40;;
9918;SDS011;4998;51.024;13.828;2023-06-10T10:04:08;4.20;;;3.80;;
9918;SDS011;4998;51.024;13.828;2023-06-10T10:06:35;4.00;;;3.70;;
9918;SDS011;4998;51.024;13.828;2023-06-10T10:09:03;4.17;;;3.87;;
9918;SDS011;4998;51.024;13.828;2023-06-10T10:11:32;4.30;;;3.90;;
9918;SDS011;4998;51.024;13.828;2023-06-10T10:14:00;4.47;;;4.07;;
9918;SDS011;4998;51.024;13.828;2023-06-10T10:16:33;4.20;;;3.90;;
9918;SDS011;4998;51.024;13.828;2023-06-10T10:19:05;4.83;;;4.43;;
9918;SDS011;4998;51.024;13.828;2023-06-10T10:21:37;5.13;;;4.70;;
9918;SDS011;4998;51.024;13.828;2023-06-10T10:24:09;5.50;;;5.00;;
9918;SDS011;4998;51.024;13.828;2023-06-10T10:26:43;5.67;;;5.17;;
9918;SDS011;4998;51.024;13.828;2023-06-10T10:29:14;5.10;;;4.70;;
9918;SDS011;4998;51.024;13.828;2023-06-10T10:31:46;5.50;;;5.07;;
9918;SDS011;4998;51.024;13.828;2023-06-10T10:34:18;8.40;;;4.37;;
9918;SDS011;4998;51.024;13.828;2023-06-10T10:36:48;4.97;;;4.47;;
9918;SDS011;4998;51.024;13.828;2023-06-10T10:39:16;4.53;;;4.00;;
9918;SDS011;4998;51.024;13.828;2023-06-10T10:41:46;5.03;;;4.53;;
9918;SDS011;4998;51.024;13.828;2023-06-10T10:44:14;3.70;;;3.40;;
9918;SDS011;4998;51.024;13.828;2023-06-10T10:46:42;4.27;;;3.97;;
9918;SDS011;4998;51.024;13.828;2023-06-10T10:49:10;4.47;;;4.00;;
9918;SDS011;4998;51.024;13.828;2023-06-10T10:51:53;5.73;;;4.07;;
9918;SDS011;4998;51.024;13.828;2023-06-10T10:54:27;4.40;;;3.80;;
9918;SDS011;4998;51.024;13.828;2023-06-10T10:57:13;4.40;;;4.00;;
9918;SDS011;4998;51.024;13.828;2023-06-10T10:59:57;6.70;;;4.97;;
9918;SDS011;4998;51.024;13.828;2023-06-10T11:02:33;4.67;;;4.27;;
9918;SDS011;4998;51.024;13.828;2023-06-10T11:05:04;4.60;;;4.20;;
9918;SDS011;4998;51.024;13.828;2023-06-10T11:07:32;4.47;;;3.53;;
9918;SDS011;4998;51.024;13.828;2023-06-10T11:10:01;6.00;;;3.80;;
9918;SDS011;4998;51.024;13.828;2023-06-10T11:15:17;4.40;;;4.00;;
9918;SDS011;4998;51.024;13.828;2023-06-10T11:20:45;4.37;;;3.97;;
9918;SDS011;4998;51.024;13.828;2023-06-10T11:23:38;4.73;;;4.33;;
9918;SDS011;4998;51.024;13.828;2023-06-10T11:26:13;5.03;;;4.63;;
9918;SDS011;4998;51.024;13.828;2023-06-10T11:31:33;6.53;;;3.97;;
9918;SDS011;4998;51.024;13.828;2023-06-10T11:34:05;5.00;;;4.10;;
9918;SDS011;4998;51.024;13.828;2023-06-10T11:36:33;4.27;;;3.90;;
9918;SDS011;4998;51.024;13.828;2023-06-10T11:39:03;10.23;;;4.40;;
9918;SDS011;4998;51.024;13.828;2023-06-10T11:41:31;5.10;;;4.60;;
9918;SDS011;4998;51.024;13.828;2023-06-10T11:44:00;5.80;;;5.20;;
9918;SDS011;4998;51.024;13.828;2023-06-10T11:46:30;5.10;;;4.60;;
9918;SDS011;4998;51.024;13.828;2023-06-10T11:48:58;4.80;;;4.30;;
9918;SDS011;4998;51.024;13.828;2023-06-10T11:51:26;4.37;;;3.97;;
9918;SDS011;4998;51.024;13.828;2023-06-10T11:53:54;4.40;;;4.00;;
9918;SDS011;4998;51.024;13.828;2023-06-10T11:56:22;4.30;;;4.00;;
9918;SDS011;4998;51.024;13.828;2023-06-10T11:58:54;4.57;;;4.20;;
9918;SDS011;4998;51.024;13.828;2023-06-10T12:01:22;7.20;;;4.60;;
9918;SDS011;4998;51.024;13.828;2023-06-10T12:04:01;4.30;;;3.90;;
9918;SDS011;4998;51.024;13.828;2023-06-10T12:06:39;8.53;;;4.17;;
9918;SDS011;4998;51.024;13.828;2023-06-10T12:09:12;4.73;;;4.33;;
9918;SDS011;4998;51.024;13.828;2023-06-10T12:11:41;4.60;;;4.20;;
9918;SDS011;4998;51.024;13.828;2023-06-10T12:14:09;4.20;;;3.80;;
9918;SDS011;4998;51.024;13.828;2023-06-10T12:16:36;4.30;;;3.90;;
9918;SDS011;4998;51.024;13.828;2023-06-10T12:19:05;4.20;;;3.90;;
9918;SDS011;4998;51.024;13.828;2023-06-10T12:21:33;4.33;;;3.93;;
9918;SDS011;4998;51.024;13.828;2023-06-10T12:24:07;4.47;;;4.10;;
9918;SDS011;4998;51.024;13.828;2023-06-10T12:26:35;3.83;;;3.50;;
9918;SDS011;4998;51.024;13.828;2023-06-10T12:29:17;4.80;;;4.07;;
9918;SDS011;4998;51.024;13.828;2023-06-10T12:31:52;4.47;;;4.00;;
9918;SDS011;4998;51.024;13.828;2023-06-10T12:34:32;4.03;;;3.73;;
9918;SDS011;4998;51.024;13.828;2023-06-10T12:37:01;4.30;;;4.00;;
9918;SDS011;4998;51.024;13.828;2023-06-10T12:39:29;4.23;;;3.83;;
9918;SDS011;4998;51.024;13.828;2023-06-10T12:41:58;4.90;;;4.50;;
9918;SDS011;4998;51.024;13.828;2023-06-10T12:44:29;5.50;;;4.07;;
9918;SDS011;4998;51.024;13.828;2023-06-10T12:46:56;4.70;;;4.10;;
9918;SDS011;4998;51.024;13.828;2023-06-10T12:49:23;4.00;;;3.70;;
9918;SDS011;4998;51.024;13.828;2023-06-10T12:51:53;4.93;;;4.17;;
9918;SDS011;4998;51.024;13.828;2023-06-10T12:54:20;4.10;;;3.80;;
9918;SDS011;4998;51.024;13.828;2023-06-10T12:56:47;4.43;;;4.03;;
9918;SDS011;4998;51.024;13.828;2023-06-10T12:59:14;4.57;;;4.17;;
9918;SDS011;4998;51.024;13.828;2023-06-10T13:01:41;4.00;;;3.70;;
9918;SDS011;4998;51.024;13.828;2023-06-10T13:04:08;4.63;;;3.90;;
9918;SDS011;4998;51.024;13.828;2023-06-10T13:06:36;4.43;;;3.73;;
9918;SDS011;4998;51.024;13.828;2023-06-10T13:09:05;7.77;;;4.10;;
9918;SDS011;4998;51.024;13.828;2023-06-10T13:11:35;4.10;;;3.80;;
9918;SDS011;4998;51.024;13.828;2023-06-10T13:14:02;4.03;;;3.63;;
9918;SDS011;4998;51.024;13.828;2023-06-10T13:16:31;4.23;;;3.43;;
9918;SDS011;4998;51.024;13.828;2023-06-10T13:18:58;4.07;;;3.77;;
9918;SDS011;4998;51.024;13.828;2023-06-10T13:21:26;3.77;;;3.50;;
9918;SDS011;4998;51.024;13.828;2023-06-10T13:23:53;3.67;;;3.30;;
9918;SDS011;4998;51.024;13.828;2023-06-10T13:26:21;5.23;;;3.87;;
9918;SDS011;4998;51.024;13.828;2023-06-10T13:28:48;4.07;;;3.77;;
9918;SDS011;4998;51.024;13.828;2023-06-10T13:31:15;3.87;;;3.57;;
9918;SDS011;4998;51.024;13.828;2023-06-10T13:33:42;3.53;;;3.33;;
9918;SDS011;4998;51.024;13.828;2023-06-10T13:36:10;3.33;;;3.03;;
9918;SDS011;4998;51.024;13.828;2023-06-10T13:38:37;3.57;;;3.27;;
9918;SDS011;4998;51.024;13.828;2023-06-10T13:41:04;4.10;;;3.70;;
9918;SDS011;4998;51.024;13.828;2023-06-10T13:43:33;3.53;;;3.23;;
9918;SDS011;4998;51.024;13.828;2023-06-10T13:46:00;5.23;;;3.70;;
9918;SDS011;4998;51.024;13.828;2023-06-10T13:48:27;3.87;;;3.47;;
9918;SDS011;4998;51.024;13.828;2023-06-10T13:50:54;4.80;;;3.23;;
9918;SDS011;4998;51.024;13.828;2023-06-10T13:53:21;4.00;;;3.47;;
9918;SDS011;4998;51.024;13.828;2023-06-10T13:55:48;3.63;;;3.37;;
9918;SDS011;4998;51.024;13.828;2023-06-10T13:58:15;4.00;;;3.07;;
9918;SDS011;4998;51.024;13.828;2023-06-10T14:00:44;3.90;;;3.40;;
9918;SDS011;4998;51.024;13.828;2023-06-10T14:03:11;3.83;;;3.33;;
9918;SDS011;4998;51.024;13.828;2023-06-10T14:05:37;5.60;;;3.53;;
9918;SDS011;4998;51.024;13.828;2023-06-10T14:08:05;7.93;;;3.50;;
9918;SDS011;4998;51.024;13.828;2023-06-10T14:10:32;3.57;;;3.27;;
9918;SDS011;4998;51.024;13.828;2023-06-10T14:12:59;4.67;;;3.20;;
9918;SDS011;4998;51.024;13.828;2023-06-10T14:15:26;3.37;;;3.07;;
9918;SDS011;4998;51.024;13.828;2023-06-10T14:17:54;3.50;;;3.27;;
9918;SDS011;4998;51.024;13.828;2023-06-10T14:20:21;3.50;;;3.00;;
9918;SDS011;4998;51.024;13.828;2023-06-10T14:22:50;3.67;;;3.03;;
9918;SDS011;4998;51.024;13.828;2023-06-10T14:25:17;4.00;;;3.60;;
9918;SDS011;4998;51.024;13.828;2023-06-10T14:27:44;3.20;;;3.00;;
9918;SDS011;4998;51.024;13.828;2023-06-10T14:30:12;3.30;;;3.10;;
9918;SDS011;4998;51.024;13.828;2023-06-10T14:32:39;3.57;;;3.27;;
9918;SDS011;4998;51.024;13.828;2023-06-10T14:35:08;3.37;;;3.17;;
9918;SDS011;4998;51.024;13.828;2023-06-10T14:37:35;3.30;;;3.10;;
9918;SDS011;4998;51.024;13.828;2023-06-10T14:40:03;3.70;;;3.07;;
9918;SDS011;4998;51.024;13.828;2023-06-10T14:42:31;4.90;;;3.40;;
9918;SDS011;4998;51.024;13.828;2023-06-10T14:44:58;4.20;;;3.40;;
9918;SDS011;4998;51.024;13.828;2023-06-10T14:47:25;3.70;;;3.40;;
9918;SDS011;4998;51.024;13.828;2023-06-10T14:49:52;3.87;;;3.57;;
9918;SDS011;4998;51.024;13.828;2023-06-10T14:52:21;3.80;;;3.50;;
9918;SDS011;4998;51.024;13.828;2023-06-10T14:54:48;3.63;;;3.33;;
9918;SDS011;4998;51.024;13.828;2023-06-10T14:57:14;4.77;;;4.37;;
9918;SDS011;4998;51.024;13.828;2023-06-10T14:59:41;3.80;;;3.50;;
9918;SDS011;4998;51.024;13.828;2023-06-10T15:02:08;4.00;;;3.70;;
9918;SDS011;4998;51.024;13.828;2023-06-10T15:04:35;4.10;;;3.70;;
9918;SDS011;4998;51.024;13.828;2023-06-10T15:07:02;7.00;;;3.37;;
9918;SDS011;4998;51.024;13.828;2023-06-10T15:09:31;4.20;;;3.90;;
9918;SDS011;4998;51.024;13.828;2023-06-10T15:11:58;4.27;;;3.53;;
9918;SDS011;4998;51.024;13.828;2023-06-10T15:14:25;4.37;;;3.97;;